sensor_id;sensor_type;location;lat;lon;timestamp;P1;durP1;ratioP1;P2;durP2;ratioP2
14704;SDS011;7442;50.840;3.396;2022-08-25T00:01:59;2.45;;;2.10;;
14704;SDS011;7442;50.840;3.396;2022-08-25T00:04:33;2.52;;;2.10;;
14704;SDS011;7442;50.840;3.396;2022-08-25T00:07:03;2.75;;;2.10;;
14704;SDS011;7442;50.840;3.396;2022-08-25T00:09:33;4.30;;;2.10;;
14704;SDS011;7442;50.840;3.396;2022-08-25T00:12:04;3.80;;;1.90;;
14704;SDS011;7442;50.840;3.396;2022-08-25T00:14:35;2.05;;;1.90;;
14704;SDS011;7442;50.840;3.396;2022-08-25T00:19:39;2.00;;;1.85;;
14704;SDS011;7442;50.840;3.396;2022-08-25T00:22:09;2.27;;;2.08;;
14704;SDS011;7442;50.840;3.396;2022-08-25T00:24:39;3.95;;;1.90;;
14704;SDS011;7442;50.840;3.396;2022-08-25T00:27:09;2.60;;;1.92;;
14704;SDS011;7442;50.840;3.396;2022-08-25T00:29:39;2.35;;;2.15;;
14704;SDS011;7442;50.840;3.396;2022-08-25T00:32:09;2.37;;;2.17;;
14704;SDS011;7442;50.840;3.396;2022-08-25T00:34:40;2.37;;;2.02;;
14704;SDS011;7442;50.840;3.396;2022-08-25T00:37:10;2.17;;;1.90;;
14704;SDS011;7442;50.840;3.396;2022-08-25T00:39:40;2.37;;;1.70;;
14704;SDS011;7442;50.840;3.396;2022-08-25T00:42:10;2.33;;;2.00;;
14704;SDS011;7442;50.840;3.396;2022-08-25T00:44:41;2.52;;;1.85;;
14704;SDS011;7442;50.840;3.396;2022-08-25T00:47:11;2.50;;;2.10;;
14704;SDS011;7442;50.840;3.396;2022-08-25T00:49:42;1.82;;;1.72;;
14704;SDS011;7442;50.840;3.396;2022-08-25T00:55:04;1.95;;;1.85;;
14704;SDS011;7442;50.840;3.396;2022-08-25T00:57:37;2.98;;;1.82;;
14704;SDS011;7442;50.840;3.396;2022-08-25T01:00:11;2.25;;;1.90;;
14704;SDS011;7442;50.840;3.396;2022-08-25T01:02:42;2.27;;;1.60;;
14704;SDS011;7442;50.840;3.396;2022-08-25T01:05:12;1.87;;;1.77;;
14704;SDS011;7442;50.840;3.396;2022-08-25T01:07:42;2.02;;;1.82;;
14704;SDS011;7442;50.840;3.396;2022-08-25T01:10:14;2.65;;;1.70;;
14704;SDS011;7442;50.840;3.396;2022-08-25T01:12:46;2.10;;;1.90;;
14704;SDS011;7442;50.840;3.396;2022-08-25T01:15:17;1.77;;;1.57;;
14704;SDS011;7442;50.840;3.396;2022-08-25T01:17:50;3.35;;;2.02;;
14704;SDS011;7442;50.840;3.396;2022-08-25T01:20:23;2.33;;;2.08;;
14704;SDS011;7442;50.840;3.396;2022-08-25T01:22:55;2.98;;;1.80;;
14704;SDS011;7442;50.840;3.396;2022-08-25T01:30:51;2.35;;;1.98;;
14704;SDS011;7442;50.840;3.396;2022-08-25T01:33:22;1.80;;;1.70;;
14704;SDS011;7442;50.840;3.396;2022-08-25T01:35:52;2.10;;;1.90;;
14704;SDS011;7442;50.840;3.396;2022-08-25T01:38:23;2.10;;;2.00;;
14704;SDS011;7442;50.840;3.396;2022-08-25T01:40:54;2.15;;;1.90;;
14704;SDS011;7442;50.840;3.396;2022-08-25T01:43:34;2.35;;;1.90;;
14704;SDS011;7442;50.840;3.396;2022-08-25T01:46:06;2.00;;;1.90;;
14704;SDS011;7442;50.840;3.396;2022-08-25T01:48:36;2.05;;;1.77;;
14704;SDS011;7442;50.840;3.396;2022-08-25T01:51:06;1.80;;;1.62;;
14704;SDS011;7442;50.840;3.396;2022-08-25T01:53:36;2.10;;;1.90;;
14704;SDS011;7442;50.840;3.396;2022-08-25T01:56:12;2.10;;;1.90;;
14704;SDS011;7442;50.840;3.396;2022-08-25T02:01:16;1.82;;;1.72;;
14704;SDS011;7442;50.840;3.396;2022-08-25T02:03:48;2.20;;;1.80;;
14704;SDS011;7442;50.840;3.396;2022-08-25T02:06:25;1.82;;;1.60;;
14704;SDS011;7442;50.840;3.396;2022-08-25T02:08:53;2.22;;;2.02;;
14704;SDS011;7442;50.840;3.396;2022-08-25T02:11:25;1.60;;;1.50;;
14704;SDS011;7442;50.840;3.396;2022-08-25T02:13:56;2.33;;;1.72;;
14704;SDS011;7442;50.840;3.396;2022-08-25T02:16:28;2.98;;;2.12;;
14704;SDS011;7442;50.840;3.396;2022-08-25T02:19:00;2.12;;;1.70;;
14704;SDS011;7442;50.840;3.396;2022-08-25T02:21:32;1.80;;;1.70;;
14704;SDS011;7442;50.840;3.396;2022-08-25T02:24:09;2.58;;;1.85;;
14704;SDS011;7442;50.840;3.396;2022-08-25T02:26:40;1.85;;;1.70;;
14704;SDS011;7442;50.840;3.396;2022-08-25T02:29:10;3.40;;;2.05;;
14704;SDS011;7442;50.840;3.396;2022-08-25T02:31:41;1.95;;;1.80;;
14704;SDS011;7442;50.840;3.396;2022-08-25T02:34:11;2.27;;;1.87;;
14704;SDS011;7442;50.840;3.396;2022-08-25T02:36:42;2.45;;;1.90;;
14704;SDS011;7442;50.840;3.396;2022-08-25T02:39:12;2.33;;;1.70;;
14704;SDS011;7442;50.840;3.396;2022-08-25T02:41:42;2.12;;;1.80;;
14704;SDS011;7442;50.840;3.396;2022-08-25T02:44:12;1.95;;;1.82;;
14704;SDS011;7442;50.840;3.396;2022-08-25T02:46:42;1.80;;;1.67;;
14704;SDS011;7442;50.840;3.396;2022-08-25T02:49:12;1.98;;;1.87;;
14704;SDS011;7442;50.840;3.396;2022-08-25T02:51:42;2.15;;;1.95;;
14704;SDS011;7442;50.840;3.396;2022-08-25T02:54:12;1.70;;;1.60;;
14704;SDS011;7442;50.840;3.396;2022-08-25T02:56:43;2.15;;;1.95;;
14704;SDS011;7442;50.840;3.396;2022-08-25T02:59:13;3.25;;;2.22;;
14704;SDS011;7442;50.840;3.396;2022-08-25T03:01:45;2.00;;;1.62;;
14704;SDS011;7442;50.840;3.396;2022-08-25T03:04:22;2.15;;;1.92;;
14704;SDS011;7442;50.840;3.396;2022-08-25T03:06:52;2.30;;;1.80;;
14704;SDS011;7442;50.840;3.396;2022-08-25T03:09:22;2.15;;;1.95;;
14704;SDS011;7442;50.840;3.396;2022-08-25T03:11:52;2.35;;;1.92;;
14704;SDS011;7442;50.840;3.396;2022-08-25T03:14:22;2.00;;;1.80;;
14704;SDS011;7442;50.840;3.396;2022-08-25T03:16:52;2.00;;;1.80;;
14704;SDS011;7442;50.840;3.396;2022-08-25T03:19:22;1.80;;;1.55;;
14704;SDS011;7442;50.840;3.396;2022-08-25T03:21:52;1.82;;;1.60;;
14704;SDS011;7442;50.840;3.396;2022-08-25T03:24:24;1.85;;;1.60;;
14704;SDS011;7442;50.840;3.396;2022-08-25T03:26:55;1.82;;;1.62;;
14704;SDS011;7442;50.840;3.396;2022-08-25T03:29:26;2.25;;;2.00;;
14704;SDS011;7442;50.840;3.396;2022-08-25T03:31:58;1.70;;;1.60;;
14704;SDS011;7442;50.840;3.396;2022-08-25T03:34:28;2.22;;;1.70;;
14704;SDS011;7442;50.840;3.396;2022-08-25T03:36:59;1.80;;;1.70;;
14704;SDS011;7442;50.840;3.396;2022-08-25T03:39:29;2.02;;;1.70;;
14704;SDS011;7442;50.840;3.396;2022-08-25T03:42:01;2.10;;;1.70;;
14704;SDS011;7442;50.840;3.396;2022-08-25T03:44:32;1.80;;;1.70;;
14704;SDS011;7442;50.840;3.396;2022-08-25T03:47:02;2.17;;;1.90;;
14704;SDS011;7442;50.840;3.396;2022-08-25T03:49:32;2.52;;;1.92;;
14704;SDS011;7442;50.840;3.396;2022-08-25T03:52:02;2.00;;;1.80;;
14704;SDS011;7442;50.840;3.396;2022-08-25T03:54:32;2.70;;;1.80;;
14704;SDS011;7442;50.840;3.396;2022-08-25T03:57:02;2.22;;;1.80;;
14704;SDS011;7442;50.840;3.396;2022-08-25T03:59:33;1.60;;;1.50;;
14704;SDS011;7442;50.840;3.396;2022-08-25T04:02:05;1.70;;;1.60;;
14704;SDS011;7442;50.840;3.396;2022-08-25T04:04:36;1.85;;;1.75;;
14704;SDS011;7442;50.840;3.396;2022-08-25T04:07:06;2.00;;;1.90;;
14704;SDS011;7442;50.840;3.396;2022-08-25T04:09:37;2.17;;;1.70;;
14704;SDS011;7442;50.840;3.396;2022-08-25T04:12:07;1.85;;;1.75;;
14704;SDS011;7442;50.840;3.396;2022-08-25T04:14:45;2.20;;;1.92;;
14704;SDS011;7442;50.840;3.396;2022-08-25T04:17:17;1.60;;;1.50;;
14704;SDS011;7442;50.840;3.396;2022-08-25T04:19:47;2.00;;;1.90;;
14704;SDS011;7442;50.840;3.396;2022-08-25T04:22:18;1.92;;;1.70;;
14704;SDS011;7442;50.840;3.396;2022-08-25T04:24:48;1.82;;;1.72;;
14704;SDS011;7442;50.840;3.396;2022-08-25T04:27:18;1.90;;;1.80;;
14704;SDS011;7442;50.840;3.396;2022-08-25T04:29:48;2.02;;;1.82;;
14704;SDS011;7442;50.840;3.396;2022-08-25T04:32:18;2.30;;;2.10;;
14704;SDS011;7442;50.840;3.396;2022-08-25T04:34:48;2.33;;;1.87;;
14704;SDS011;7442;50.840;3.396;2022-08-25T04:37:19;1.80;;;1.70;;
14704;SDS011;7442;50.840;3.396;2022-08-25T04:39:49;2.15;;;2.05;;
14704;SDS011;7442;50.840;3.396;2022-08-25T04:42:19;2.37;;;2.17;;
14704;SDS011;7442;50.840;3.396;2022-08-25T04:44:50;1.92;;;1.70;;
14704;SDS011;7442;50.840;3.396;2022-08-25T04:47:21;2.22;;;1.95;;
14704;SDS011;7442;50.840;3.396;2022-08-25T04:49:52;2.00;;;1.90;;
14704;SDS011;7442;50.840;3.396;2022-08-25T04:52:22;2.45;;;1.95;;
14704;SDS011;7442;50.840;3.396;2022-08-25T04:54:52;1.87;;;1.70;;
14704;SDS011;7442;50.840;3.396;2022-08-25T04:57:22;1.72;;;1.60;;
14704;SDS011;7442;50.840;3.396;2022-08-25T04:59:52;2.87;;;2.02;;
14704;SDS011;7442;50.840;3.396;2022-08-25T05:02:22;1.85;;;1.75;;
14704;SDS011;7442;50.840;3.396;2022-08-25T05:04:53;2.00;;;1.90;;
14704;SDS011;7442;50.840;3.396;2022-08-25T05:07:23;2.25;;;2.05;;
14704;SDS011;7442;50.840;3.396;2022-08-25T05:09:53;2.33;;;2.00;;
14704;SDS011;7442;50.840;3.396;2022-08-25T05:12:23;1.98;;;1.87;;
14704;SDS011;7442;50.840;3.396;2022-08-25T05:14:53;2.45;;;2.02;;
14704;SDS011;7442;50.840;3.396;2022-08-25T05:17:23;2.02;;;1.77;;
14704;SDS011;7442;50.840;3.396;2022-08-25T05:19:55;8.40;;;1.90;;
14704;SDS011;7442;50.840;3.396;2022-08-25T05:22:25;1.77;;;1.67;;
14704;SDS011;7442;50.840;3.396;2022-08-25T05:24:55;10.10;;;5.20;;
14704;SDS011;7442;50.840;3.396;2022-08-25T05:27:25;9.83;;;6.03;;
14704;SDS011;7442;50.840;3.396;2022-08-25T05:29:56;13.32;;;6.20;;
14704;SDS011;7442;50.840;3.396;2022-08-25T05:32:26;7.15;;;6.28;;
14704;SDS011;7442;50.840;3.396;2022-08-25T05:34:56;9.63;;;6.58;;
14704;SDS011;7442;50.840;3.396;2022-08-25T05:37:28;11.68;;;4.97;;
14704;SDS011;7442;50.840;3.396;2022-08-25T05:40:04;11.83;;;5.10;;
14704;SDS011;7442;50.840;3.396;2022-08-25T05:42:35;8.43;;;4.28;;
14704;SDS011;7442;50.840;3.396;2022-08-25T05:45:12;6.50;;;3.83;;
14704;SDS011;7442;50.840;3.396;2022-08-25T05:47:42;5.53;;;3.70;;
14704;SDS011;7442;50.840;3.396;2022-08-25T05:50:12;5.17;;;3.22;;
14704;SDS011;7442;50.840;3.396;2022-08-25T05:52:44;6.03;;;2.62;;
14704;SDS011;7442;50.840;3.396;2022-08-25T05:55:14;5.65;;;3.10;;
14704;SDS011;7442;50.840;3.396;2022-08-25T05:57:44;5.25;;;3.20;;
14704;SDS011;7442;50.840;3.396;2022-08-25T06:00:15;5.60;;;2.83;;
14704;SDS011;7442;50.840;3.396;2022-08-25T06:02:46;4.00;;;3.10;;
14704;SDS011;7442;50.840;3.396;2022-08-25T06:05:19;5.03;;;2.72;;
14704;SDS011;7442;50.840;3.396;2022-08-25T06:07:50;6.87;;;3.00;;
14704;SDS011;7442;50.840;3.396;2022-08-25T06:10:20;6.20;;;2.80;;
14704;SDS011;7442;50.840;3.396;2022-08-25T06:12:50;2.80;;;2.60;;
14704;SDS011;7442;50.840;3.396;2022-08-25T06:15:23;6.40;;;2.72;;
14704;SDS011;7442;50.840;3.396;2022-08-25T06:17:53;3.95;;;2.90;;
14704;SDS011;7442;50.840;3.396;2022-08-25T06:20:26;5.72;;;2.80;;
14704;SDS011;7442;50.840;3.396;2022-08-25T06:22:59;6.10;;;2.47;;
14704;SDS011;7442;50.840;3.396;2022-08-25T06:25:29;4.95;;;2.58;;
14704;SDS011;7442;50.840;3.396;2022-08-25T06:28:01;5.35;;;3.33;;
14704;SDS011;7442;50.840;3.396;2022-08-25T06:30:31;5.22;;;2.80;;
14704;SDS011;7442;50.840;3.396;2022-08-25T06:33:01;2.75;;;2.30;;
14704;SDS011;7442;50.840;3.396;2022-08-25T06:35:31;2.92;;;2.40;;
14704;SDS011;7442;50.840;3.396;2022-08-25T06:38:01;4.40;;;2.80;;
14704;SDS011;7442;50.840;3.396;2022-08-25T06:40:31;3.45;;;2.70;;
14704;SDS011;7442;50.840;3.396;2022-08-25T06:43:01;3.37;;;2.47;;
14704;SDS011;7442;50.840;3.396;2022-08-25T06:45:33;2.92;;;2.60;;
14704;SDS011;7442;50.840;3.396;2022-08-25T06:48:05;4.67;;;2.67;;
14704;SDS011;7442;50.840;3.396;2022-08-25T06:50:38;5.62;;;2.62;;
14704;SDS011;7442;50.840;3.396;2022-08-25T06:53:10;4.30;;;2.65;;
14704;SDS011;7442;50.840;3.396;2022-08-25T06:55:40;3.83;;;2.50;;
14704;SDS011;7442;50.840;3.396;2022-08-25T06:58:10;3.90;;;2.45;;
14704;SDS011;7442;50.840;3.396;2022-08-25T07:00:40;4.08;;;2.25;;
14704;SDS011;7442;50.840;3.396;2022-08-25T07:03:11;3.95;;;2.75;;
14704;SDS011;7442;50.840;3.396;2022-08-25T07:05:41;3.72;;;2.60;;
14704;SDS011;7442;50.840;3.396;2022-08-25T07:08:12;4.83;;;2.65;;
14704;SDS011;7442;50.840;3.396;2022-08-25T07:10:48;3.52;;;2.30;;
14704;SDS011;7442;50.840;3.396;2022-08-25T07:13:18;4.00;;;2.40;;
14704;SDS011;7442;50.840;3.396;2022-08-25T07:15:52;6.65;;;2.60;;
14704;SDS011;7442;50.840;3.396;2022-08-25T07:18:23;4.08;;;2.35;;
14704;SDS011;7442;50.840;3.396;2022-08-25T07:20:54;3.25;;;2.27;;
14704;SDS011;7442;50.840;3.396;2022-08-25T07:23:25;2.83;;;2.50;;
14704;SDS011;7442;50.840;3.396;2022-08-25T07:25:56;2.65;;;2.27;;
14704;SDS011;7442;50.840;3.396;2022-08-25T07:28:38;4.20;;;2.55;;
14704;SDS011;7442;50.840;3.396;2022-08-25T07:31:09;2.85;;;2.40;;
14704;SDS011;7442;50.840;3.396;2022-08-25T07:33:39;3.15;;;2.60;;
14704;SDS011;7442;50.840;3.396;2022-08-25T07:36:28;6.20;;;2.90;;
14704;SDS011;7442;50.840;3.396;2022-08-25T07:38:59;5.40;;;2.30;;
14704;SDS011;7442;50.840;3.396;2022-08-25T07:41:37;3.80;;;2.20;;
14704;SDS011;7442;50.840;3.396;2022-08-25T07:44:09;3.33;;;2.80;;
14704;SDS011;7442;50.840;3.396;2022-08-25T07:46:40;4.70;;;2.45;;
14704;SDS011;7442;50.840;3.396;2022-08-25T07:49:10;6.53;;;2.80;;
14704;SDS011;7442;50.840;3.396;2022-08-25T07:51:40;5.20;;;2.50;;
14704;SDS011;7442;50.840;3.396;2022-08-25T07:54:11;3.52;;;2.42;;
14704;SDS011;7442;50.840;3.396;2022-08-25T07:56:43;5.40;;;2.65;;
14704;SDS011;7442;50.840;3.396;2022-08-25T07:59:13;3.72;;;2.80;;
14704;SDS011;7442;50.840;3.396;2022-08-25T08:01:43;8.23;;;3.27;;
14704;SDS011;7442;50.840;3.396;2022-08-25T08:04:14;11.70;;;3.40;;
14704;SDS011;7442;50.840;3.396;2022-08-25T08:06:44;4.75;;;2.77;;
14704;SDS011;7442;50.840;3.396;2022-08-25T08:09:14;7.00;;;2.83;;
14704;SDS011;7442;50.840;3.396;2022-08-25T08:11:44;9.18;;;3.33;;
14704;SDS011;7442;50.840;3.396;2022-08-25T08:14:14;6.62;;;2.95;;
14704;SDS011;7442;50.840;3.396;2022-08-25T08:16:45;11.45;;;3.30;;
14704;SDS011;7442;50.840;3.396;2022-08-25T08:19:16;9.13;;;3.12;;
14704;SDS011;7442;50.840;3.396;2022-08-25T08:21:46;9.15;;;3.00;;
14704;SDS011;7442;50.840;3.396;2022-08-25T08:24:18;9.10;;;3.45;;
14704;SDS011;7442;50.840;3.396;2022-08-25T08:26:48;9.95;;;3.12;;
14704;SDS011;7442;50.840;3.396;2022-08-25T08:29:18;7.83;;;2.80;;
14704;SDS011;7442;50.840;3.396;2022-08-25T08:31:49;7.47;;;2.70;;
14704;SDS011;7442;50.840;3.396;2022-08-25T08:34:22;7.25;;;3.12;;
14704;SDS011;7442;50.840;3.396;2022-08-25T08:36:52;8.93;;;3.10;;
14704;SDS011;7442;50.840;3.396;2022-08-25T08:39:22;10.82;;;3.20;;
14704;SDS011;7442;50.840;3.396;2022-08-25T08:45:09;10.30;;;2.87;;
14704;SDS011;7442;50.840;3.396;2022-08-25T08:53:04;9.18;;;3.10;;
14704;SDS011;7442;50.840;3.396;2022-08-25T08:55:47;8.70;;;3.25;;
14704;SDS011;7442;50.840;3.396;2022-08-25T08:58:27;12.58;;;2.90;;
14704;SDS011;7442;50.840;3.396;2022-08-25T09:01:34;13.68;;;2.95;;
14704;SDS011;7442;50.840;3.396;2022-08-25T09:03:55;12.73;;;3.30;;
14704;SDS011;7442;50.840;3.396;2022-08-25T09:06:36;6.22;;;3.20;;
14704;SDS011;7442;50.840;3.396;2022-08-25T09:09:08;9.30;;;3.00;;
14704;SDS011;7442;50.840;3.396;2022-08-25T09:11:45;7.53;;;3.10;;
14704;SDS011;7442;50.840;3.396;2022-08-25T09:17:09;8.33;;;3.08;;
14704;SDS011;7442;50.840;3.396;2022-08-25T09:22:41;6.87;;;2.83;;
14704;SDS011;7442;50.840;3.396;2022-08-25T09:25:16;4.40;;;2.75;;
14704;SDS011;7442;50.840;3.396;2022-08-25T09:30:43;3.00;;;2.52;;
14704;SDS011;7442;50.840;3.396;2022-08-25T09:33:22;7.37;;;2.47;;
14704;SDS011;7442;50.840;3.396;2022-08-25T09:35:56;8.90;;;2.80;;
14704;SDS011;7442;50.840;3.396;2022-08-25T09:38:27;8.85;;;2.72;;
14704;SDS011;7442;50.840;3.396;2022-08-25T09:40:59;4.53;;;2.27;;
14704;SDS011;7442;50.840;3.396;2022-08-25T09:43:32;4.83;;;2.45;;
14704;SDS011;7442;50.840;3.396;2022-08-25T09:46:13;8.58;;;2.50;;
14704;SDS011;7442;50.840;3.396;2022-08-25T09:48:46;9.83;;;2.52;;
14704;SDS011;7442;50.840;3.396;2022-08-25T09:51:31;5.75;;;2.62;;
14704;SDS011;7442;50.840;3.396;2022-08-25T09:56:52;4.35;;;1.95;;
14704;SDS011;7442;50.840;3.396;2022-08-25T09:59:25;5.22;;;2.45;;
14704;SDS011;7442;50.840;3.396;2022-08-25T10:01:59;4.37;;;2.35;;
14704;SDS011;7442;50.840;3.396;2022-08-25T10:04:31;2.95;;;2.02;;
14704;SDS011;7442;50.840;3.396;2022-08-25T10:07:27;5.30;;;2.30;;
14704;SDS011;7442;50.840;3.396;2022-08-25T10:09:57;4.80;;;2.20;;
14704;SDS011;7442;50.840;3.396;2022-08-25T10:12:31;4.75;;;2.30;;
14704;SDS011;7442;50.840;3.396;2022-08-25T10:15:27;3.27;;;2.00;;
14704;SDS011;7442;50.840;3.396;2022-08-25T10:17:48;6.30;;;2.50;;
14704;SDS011;7442;50.840;3.396;2022-08-25T10:20:21;5.60;;;2.30;;
14704;SDS011;7442;50.840;3.396;2022-08-25T10:23:08;6.17;;;2.50;;
14704;SDS011;7442;50.840;3.396;2022-08-25T10:25:47;10.80;;;2.90;;
14704;SDS011;7442;50.840;3.396;2022-08-25T10:34:04;8.33;;;4.35;;
14704;SDS011;7442;50.840;3.396;2022-08-25T10:36:57;7.90;;;4.60;;
14704;SDS011;7442;50.840;3.396;2022-08-25T10:39:37;9.83;;;4.53;;
14704;SDS011;7442;50.840;3.396;2022-08-25T10:48:00;6.28;;;3.02;;
14704;SDS011;7442;50.840;3.396;2022-08-25T10:50:40;5.03;;;3.05;;
14704;SDS011;7442;50.840;3.396;2022-08-25T10:56:02;8.98;;;3.62;;
14704;SDS011;7442;50.840;3.396;2022-08-25T10:58:50;8.13;;;3.40;;
14704;SDS011;7442;50.840;3.396;2022-08-25T11:07:27;5.05;;;3.33;;
14704;SDS011;7442;50.840;3.396;2022-08-25T11:09:56;4.35;;;3.08;;
14704;SDS011;7442;50.840;3.396;2022-08-25T11:12:30;7.45;;;3.10;;
14704;SDS011;7442;50.840;3.396;2022-08-25T11:15:09;7.17;;;3.50;;
14704;SDS011;7442;50.840;3.396;2022-08-25T11:18:02;6.55;;;3.25;;
14704;SDS011;7442;50.840;3.396;2022-08-25T11:20:40;8.20;;;3.00;;
14704;SDS011;7442;50.840;3.396;2022-08-25T11:23:27;5.35;;;2.55;;
14704;SDS011;7442;50.840;3.396;2022-08-25T11:26:02;7.22;;;3.45;;
14704;SDS011;7442;50.840;3.396;2022-08-25T11:31:26;9.80;;;3.35;;
14704;SDS011;7442;50.840;3.396;2022-08-25T11:33:57;9.20;;;3.58;;
14704;SDS011;7442;50.840;3.396;2022-08-25T11:36:35;4.78;;;3.60;;
14704;SDS011;7442;50.840;3.396;2022-08-25T11:39:14;6.08;;;3.65;;
14704;SDS011;7442;50.840;3.396;2022-08-25T11:42:12;5.20;;;3.52;;
14704;SDS011;7442;50.840;3.396;2022-08-25T11:45:03;8.15;;;4.08;;
14704;SDS011;7442;50.840;3.396;2022-08-25T11:48:08;8.38;;;5.40;;
14704;SDS011;7442;50.840;3.396;2022-08-25T11:53:42;7.47;;;4.97;;
14704;SDS011;7442;50.840;3.396;2022-08-25T11:56:33;7.95;;;5.17;;
14704;SDS011;7442;50.840;3.396;2022-08-25T11:59:05;6.87;;;4.25;;
14704;SDS011;7442;50.840;3.396;2022-08-25T12:04:35;8.50;;;4.70;;
14704;SDS011;7442;50.840;3.396;2022-08-25T12:07:16;9.93;;;4.58;;
14704;SDS011;7442;50.840;3.396;2022-08-25T12:18:15;6.42;;;4.60;;
14704;SDS011;7442;50.840;3.396;2022-08-25T12:23:27;9.73;;;4.62;;
14704;SDS011;7442;50.840;3.396;2022-08-25T12:26:27;4.03;;;3.62;;
14704;SDS011;7442;50.840;3.396;2022-08-25T12:31:57;5.25;;;4.30;;
14704;SDS011;7442;50.840;3.396;2022-08-25T12:34:46;10.40;;;5.17;;
14704;SDS011;7442;50.840;3.396;2022-08-25T12:37:30;13.78;;;5.67;;
14704;SDS011;7442;50.840;3.396;2022-08-25T12:40:01;8.33;;;4.55;;
14704;SDS011;7442;50.840;3.396;2022-08-25T12:42:37;6.67;;;4.50;;
14704;SDS011;7442;50.840;3.396;2022-08-25T12:47:53;11.80;;;4.45;;
14704;SDS011;7442;50.840;3.396;2022-08-25T12:53:06;7.87;;;5.28;;
14704;SDS011;7442;50.840;3.396;2022-08-25T12:55:48;6.90;;;4.75;;
14704;SDS011;7442;50.840;3.396;2022-08-25T12:58:46;7.62;;;4.58;;
14704;SDS011;7442;50.840;3.396;2022-08-25T13:13:02;11.30;;;5.70;;
14704;SDS011;7442;50.840;3.396;2022-08-25T13:15:58;13.13;;;5.85;;
14704;SDS011;7442;50.840;3.396;2022-08-25T13:18:35;10.82;;;6.30;;
14704;SDS011;7442;50.840;3.396;2022-08-25T13:23:51;12.03;;;6.47;;
14704;SDS011;7442;50.840;3.396;2022-08-25T13:26:25;12.80;;;6.50;;
14704;SDS011;7442;50.840;3.396;2022-08-25T13:29:00;23.32;;;7.83;;
14704;SDS011;7442;50.840;3.396;2022-08-25T13:32:26;14.03;;;9.50;;
14704;SDS011;7442;50.840;3.396;2022-08-25T13:34:23;19.05;;;10.55;;
14704;SDS011;7442;50.840;3.396;2022-08-25T13:36:54;14.40;;;9.48;;
14704;SDS011;7442;50.840;3.396;2022-08-25T13:39:43;18.35;;;11.97;;
14704;SDS011;7442;50.840;3.396;2022-08-25T13:42:14;17.02;;;11.15;;
14704;SDS011;7442;50.840;3.396;2022-08-25T13:44:45;16.00;;;9.93;;
14704;SDS011;7442;50.840;3.396;2022-08-25T13:47:35;18.40;;;12.65;;
14704;SDS011;7442;50.840;3.396;2022-08-25T13:52:38;19.45;;;13.45;;
14704;SDS011;7442;50.840;3.396;2022-08-25T13:55:17;18.07;;;12.37;;
14704;SDS011;7442;50.840;3.396;2022-08-25T13:57:51;19.75;;;12.70;;
14704;SDS011;7442;50.840;3.396;2022-08-25T14:00:26;17.20;;;13.00;;
14704;SDS011;7442;50.840;3.396;2022-08-25T14:03:02;23.55;;;14.43;;
14704;SDS011;7442;50.840;3.396;2022-08-25T14:05:37;21.30;;;13.93;;
14704;SDS011;7442;50.840;3.396;2022-08-25T14:11:10;18.17;;;14.18;;
14704;SDS011;7442;50.840;3.396;2022-08-25T14:13:44;20.48;;;13.68;;
14704;SDS011;7442;50.840;3.396;2022-08-25T14:16:19;17.65;;;13.80;;
14704;SDS011;7442;50.840;3.396;2022-08-25T14:18:52;17.27;;;12.68;;
14704;SDS011;7442;50.840;3.396;2022-08-25T14:21:25;20.27;;;14.93;;
14704;SDS011;7442;50.840;3.396;2022-08-25T14:23:57;29.15;;;14.18;;
14704;SDS011;7442;50.840;3.396;2022-08-25T14:26:29;18.50;;;13.78;;
14704;SDS011;7442;50.840;3.396;2022-08-25T14:28:59;19.57;;;13.45;;
14704;SDS011;7442;50.840;3.396;2022-08-25T14:31:32;18.12;;;12.88;;
14704;SDS011;7442;50.840;3.396;2022-08-25T14:36:58;19.42;;;11.75;;
14704;SDS011;7442;50.840;3.396;2022-08-25T14:39:30;17.85;;;10.18;;
14704;SDS011;7442;50.840;3.396;2022-08-25T14:42:01;19.82;;;11.73;;
14704;SDS011;7442;50.840;3.396;2022-08-25T14:44:32;15.35;;;9.75;;
14704;SDS011;7442;50.840;3.396;2022-08-25T14:47:02;15.95;;;9.08;;
14704;SDS011;7442;50.840;3.396;2022-08-25T14:49:35;12.88;;;8.73;;
14704;SDS011;7442;50.840;3.396;2022-08-25T14:52:09;12.53;;;8.08;;
14704;SDS011;7442;50.840;3.396;2022-08-25T14:54:41;12.82;;;7.22;;
14704;SDS011;7442;50.840;3.396;2022-08-25T14:57:12;13.65;;;8.13;;
14704;SDS011;7442;50.840;3.396;2022-08-25T14:59:48;15.03;;;8.25;;
14704;SDS011;7442;50.840;3.396;2022-08-25T15:02:20;13.43;;;6.80;;
14704;SDS011;7442;50.840;3.396;2022-08-25T15:04:53;16.93;;;7.12;;
14704;SDS011;7442;50.840;3.396;2022-08-25T15:07:25;13.35;;;6.85;;
14704;SDS011;7442;50.840;3.396;2022-08-25T15:09:59;11.40;;;5.35;;
14704;SDS011;7442;50.840;3.396;2022-08-25T15:12:29;10.45;;;5.20;;
14704;SDS011;7442;50.840;3.396;2022-08-25T15:14:59;12.30;;;4.47;;
14704;SDS011;7442;50.840;3.396;2022-08-25T15:17:29;13.68;;;5.03;;
14704;SDS011;7442;50.840;3.396;2022-08-25T15:20:00;11.05;;;4.00;;
14704;SDS011;7442;50.840;3.396;2022-08-25T15:22:30;12.90;;;3.83;;
14704;SDS011;7442;50.840;3.396;2022-08-25T15:25:00;10.72;;;4.67;;
14704;SDS011;7442;50.840;3.396;2022-08-25T15:27:33;12.23;;;3.95;;
14704;SDS011;7442;50.840;3.396;2022-08-25T15:30:04;18.05;;;4.25;;
14704;SDS011;7442;50.840;3.396;2022-08-25T15:32:35;18.60;;;4.85;;
14704;SDS011;7442;50.840;3.396;2022-08-25T15:35:05;9.60;;;4.03;;
14704;SDS011;7442;50.840;3.396;2022-08-25T15:37:37;12.13;;;4.12;;
14704;SDS011;7442;50.840;3.396;2022-08-25T15:40:09;18.95;;;4.40;;
14704;SDS011;7442;50.840;3.396;2022-08-25T15:42:40;16.62;;;4.47;;
14704;SDS011;7442;50.840;3.396;2022-08-25T15:45:10;12.78;;;4.10;;
14704;SDS011;7442;50.840;3.396;2022-08-25T15:47:40;9.53;;;4.10;;
14704;SDS011;7442;50.840;3.396;2022-08-25T15:50:12;13.85;;;3.60;;
14704;SDS011;7442;50.840;3.396;2022-08-25T15:52:44;21.97;;;4.20;;
14704;SDS011;7442;50.840;3.396;2022-08-25T15:55:14;15.13;;;4.45;;
14704;SDS011;7442;50.840;3.396;2022-08-25T15:57:45;16.97;;;3.92;;
14704;SDS011;7442;50.840;3.396;2022-08-25T16:00:16;14.03;;;4.03;;
14704;SDS011;7442;50.840;3.396;2022-08-25T16:02:47;14.63;;;4.42;;
14704;SDS011;7442;50.840;3.396;2022-08-25T16:05:17;13.95;;;4.37;;
14704;SDS011;7442;50.840;3.396;2022-08-25T16:07:47;12.45;;;3.83;;
14704;SDS011;7442;50.840;3.396;2022-08-25T16:10:17;11.73;;;3.75;;
14704;SDS011;7442;50.840;3.396;2022-08-25T16:12:48;11.75;;;4.15;;
14704;SDS011;7442;50.840;3.396;2022-08-25T16:15:19;10.18;;;4.35;;
14704;SDS011;7442;50.840;3.396;2022-08-25T16:17:49;10.82;;;4.67;;
14704;SDS011;7442;50.840;3.396;2022-08-25T16:20:19;15.85;;;4.60;;
14704;SDS011;7442;50.840;3.396;2022-08-25T16:22:51;12.35;;;4.58;;
14704;SDS011;7442;50.840;3.396;2022-08-25T16:25:21;19.87;;;4.45;;
14704;SDS011;7442;50.840;3.396;2022-08-25T16:27:52;13.48;;;4.97;;
14704;SDS011;7442;50.840;3.396;2022-08-25T16:30:22;10.82;;;4.33;;
14704;SDS011;7442;50.840;3.396;2022-08-25T16:32:52;12.28;;;4.40;;
14704;SDS011;7442;50.840;3.396;2022-08-25T16:35:22;10.93;;;4.83;;
14704;SDS011;7442;50.840;3.396;2022-08-25T16:37:52;11.63;;;4.00;;
14704;SDS011;7442;50.840;3.396;2022-08-25T16:40:23;12.10;;;5.00;;
14704;SDS011;7442;50.840;3.396;2022-08-25T16:42:53;14.85;;;5.08;;
14704;SDS011;7442;50.840;3.396;2022-08-25T16:45:24;11.65;;;4.97;;
14704;SDS011;7442;50.840;3.396;2022-08-25T16:47:55;13.85;;;5.20;;
14704;SDS011;7442;50.840;3.396;2022-08-25T16:50:25;14.53;;;5.28;;
14704;SDS011;7442;50.840;3.396;2022-08-25T16:52:57;9.75;;;5.17;;
14704;SDS011;7442;50.840;3.396;2022-08-25T16:55:46;16.85;;;5.40;;
14704;SDS011;7442;50.840;3.396;2022-08-25T16:58:16;16.85;;;5.83;;
14704;SDS011;7442;50.840;3.396;2022-08-25T17:00:46;17.15;;;5.47;;
14704;SDS011;7442;50.840;3.396;2022-08-25T17:03:16;16.73;;;5.03;;
14704;SDS011;7442;50.840;3.396;2022-08-25T17:05:46;13.20;;;5.30;;
14704;SDS011;7442;50.840;3.396;2022-08-25T17:08:17;18.42;;;4.90;;
14704;SDS011;7442;50.840;3.396;2022-08-25T17:11:07;18.12;;;5.00;;
14704;SDS011;7442;50.840;3.396;2022-08-25T17:13:47;11.88;;;4.20;;
14704;SDS011;7442;50.840;3.396;2022-08-25T17:16:20;14.07;;;3.45;;
14704;SDS011;7442;50.840;3.396;2022-08-25T17:18:53;14.10;;;3.25;;